Zanesfield, Ohio
Current Conditions -  °F | °C
As of 1:30 PM on Monday 26 Jan 2015 (Local Time) from KEDJ Reporting Station
Clear Clear  
Wind Chill:   Ceiling: Unl
Heat Index: 16°   Visibility: 10mi
Dew Point: 10°   Wind: 9mph
Humidity: 79%   Direction: 340°NNW
Pressure: 29.87"   Gusts: NA
Location:  40.34°N, 83.68°W
Report Text: KEDJ 261830Z AUTO 34008KT 10SM CLR M09/M12 A2987 RMK AO1
Loading
Personal Weather Stations






























Interactive Weather Map New forecast layout! Learn more

10-Day Weather Forecast

Advertisements
Track Severe Weather on mobile